Time;durP1;ratioP1;P1;durP2;ratioP2;P2;SDS_P1;SDS_P2;PMS_P1;PMS_P2;Temp;Humidity;BMP_temperature;BMP_pressure;BME280_temperature;BME280_humidity;BME280_pressure;Samples;Min_cycle;Max_cycle;Signal;HPM_P1;HPM_P2
2022/09/23 04:06:56;;;;;;;3.60;1.20;;;11.20;99.90;;;;;;6153132;22;20075;-88
2022/09/23 04:09:23;;;;;;;2.88;1.40;;;11.20;99.90;;;;;;6174252;23;20016;-88
2022/09/23 04:11:49;;;;;;;3.13;1.48;;;11.20;99.90;;;;;;6175367;22;20031;-87
2022/09/23 04:14:16;;;;;;;0.90;0.90;;;11.20;99.90;;;;;;6177119;23;20053;-84
2022/09/23 04:16:42;;;;;;;0.90;0.90;;;11.20;99.90;;;;;;6175569;22;20027;-88
2022/09/23 04:19:11;;;;;;;1.10;0.95;;;11.20;99.90;;;;;;6177214;23;20041;-88
2022/09/23 04:21:37;;;;;;;2.60;0.98;;;11.10;99.90;;;;;;6175884;23;20036;-87
2022/09/23 04:24:03;;;;;;;1.00;1.00;;;11.20;99.90;;;;;;6176786;22;20052;-86
2022/09/23 04:26:30;;;;;;;8.82;1.27;;;11.10;99.90;;;;;;6175699;23;20005;-90
2022/09/23 04:28:58;;;;;;;3.35;1.00;;;11.10;99.90;;;;;;6176605;23;20400;-89
2022/09/23 04:31:27;;;;;;;1.30;1.05;;;11.10;99.90;;;;;;6175559;23;20097;-89
2022/09/23 04:33:53;;;;;;;1.52;1.13;;;11.10;99.90;;;;;;6177290;23;20001;-87
2022/09/23 04:36:19;;;;;;;2.05;1.20;;;11.00;99.90;;;;;;6171969;23;20020;-89
2022/09/23 04:38:45;;;;;;;2.22;1.10;;;11.00;99.90;;;;;;6148094;23;20010;-90
2022/09/23 04:41:14;;;;;;;2.20;0.93;;;11.00;99.90;;;;;;6174699;23;19997;-91
2022/09/23 04:43:41;;;;;;;2.70;1.17;;;11.00;99.90;;;;;;6176149;23;20142;-87
2022/09/23 04:46:09;;;;;;;0.80;0.80;;;11.00;99.90;;;;;;6175319;23;20446;-88
2022/09/23 04:48:40;;;;;;;1.75;1.00;;;10.90;99.90;;;;;;6168682;22;20442;-91
2022/09/23 04:51:14;;;;;;;2.35;1.02;;;11.00;99.90;;;;;;6171739;22;20005;-87
2022/09/23 04:53:42;;;;;;;1.87;1.37;;;10.90;99.90;;;;;;6174373;23;20009;-89
2022/09/23 04:56:11;;;;;;;1.10;1.00;;;10.90;99.90;;;;;;6173531;22;20485;-89
2022/09/23 04:58:37;;;;;;;1.92;1.10;;;10.90;99.90;;;;;;6176239;23;20028;-87
2022/09/23 05:01:10;;;;;;;2.72;1.13;;;10.90;99.90;;;;;;6176448;22;20037;-90
2022/09/23 05:03:36;;;;;;;2.58;1.52;;;10.90;99.90;;;;;;6175537;23;20005;-87
2022/09/23 05:06:02;;;;;;;1.80;1.27;;;10.90;99.90;;;;;;6177181;23;20096;-90
2022/09/23 05:08:28;;;;;;;0.85;0.82;;;11.00;99.90;;;;;;6176014;23;20450;-91
2022/09/23 05:10:57;;;;;;;1.63;1.02;;;11.00;99.90;;;;;;6175898;23;20012;-91
2022/09/23 05:13:23;;;;;;;2.45;1.00;;;11.00;99.90;;;;;;6176561;23;20001;-89
2022/09/23 05:15:48;;;;;;;11.68;2.30;;;10.90;99.90;;;;;;6176236;23;20005;-89
2022/09/23 05:18:14;;;;;;;7.00;1.10;;;10.90;99.90;;;;;;6177881;23;20051;-90
2022/09/23 05:20:40;;;;;;;5.15;1.50;;;10.90;99.90;;;;;;6177424;23;20001;-91
2022/09/23 05:23:05;;;;;;;1.10;1.05;;;10.90;99.90;;;;;;6176712;23;20318;-90
2022/09/23 05:25:31;;;;;;;2.28;1.52;;;10.90;99.90;;;;;;6177880;23;20043;-88
2022/09/23 05:27:56;;;;;;;1.98;1.02;;;10.90;99.90;;;;;;6176216;23;20326;-88
2022/09/23 05:30:22;;;;;;;1.25;1.00;;;10.90;99.90;;;;;;6175999;23;20304;-86
2022/09/23 05:32:47;;;;;;;1.65;0.85;;;10.90;99.90;;;;;;6175920;23;20256;-89
2022/09/23 05:35:13;;;;;;;2.40;1.17;;;10.90;99.90;;;;;;6176565;23;19997;-90
2022/09/23 05:37:38;;;;;;;1.77;1.02;;;10.90;99.90;;;;;;6176687;23;20020;-93
2022/09/23 05:40:04;;;;;;;1.50;1.05;;;10.90;99.90;;;;;;6177513;23;20032;-87
2022/09/23 05:42:30;;;;;;;3.03;1.27;;;10.90;99.90;;;;;;6172822;23;19997;-89
2022/09/23 05:44:56;;;;;;;1.75;1.35;;;10.90;99.90;;;;;;6176449;22;20031;-89
2022/09/23 05:47:21;;;;;;;5.47;1.40;;;11.00;99.90;;;;;;6175329;23;20016;-85
2022/09/23 05:49:47;;;;;;;2.80;1.17;;;11.00;99.90;;;;;;6176131;22;20012;-87
2022/09/23 05:52:12;;;;;;;3.97;1.35;;;11.00;99.90;;;;;;6174364;23;20434;-88
2022/09/23 05:54:39;;;;;;;2.75;1.10;;;11.00;99.90;;;;;;6176632;23;19998;-88
2022/09/23 05:57:04;;;;;;;1.48;1.30;;;11.00;99.90;;;;;;6174255;23;20112;-86
2022/09/23 05:59:30;;;;;;;3.58;1.40;;;11.00;99.90;;;;;;6176104;23;20462;-84
2022/09/23 06:01:56;;;;;;;1.55;1.23;;;11.10;99.90;;;;;;6173949;23;20009;-89
2022/09/23 06:04:21;;;;;;;6.60;1.27;;;11.20;99.90;;;;;;6177619;23;20092;-88
2022/09/23 06:06:47;;;;;;;4.72;1.38;;;11.20;99.90;;;;;;6174392;23;20012;-90
2022/09/23 06:09:13;;;;;;;1.30;1.15;;;11.30;99.90;;;;;;6174290;23;19994;-90
2022/09/23 06:11:40;;;;;;;1.75;1.25;;;11.30;99.90;;;;;;6176330;23;20001;-90
2022/09/23 06:14:05;;;;;;;6.47;1.48;;;11.30;99.90;;;;;;6177667;22;20487;-89
2022/09/23 06:16:33;;;;;;;4.95;1.50;;;11.40;99.90;;;;;;6176208;23;20006;-90
2022/09/23 06:19:03;;;;;;;1.02;1.02;;;11.40;99.90;;;;;;6151258;23;20029;-90
2022/09/23 06:21:30;;;;;;;1.05;1.00;;;11.50;99.90;;;;;;6176481;22;20001;-88
2022/09/23 06:23:59;;;;;;;1.77;1.10;;;11.50;99.90;;;;;;6177573;23;20008;-89
2022/09/23 06:26:24;;;;;;;5.97;1.30;;;11.50;99.90;;;;;;6176609;23;20005;-89
2022/09/23 06:28:50;;;;;;;8.13;1.40;;;11.60;99.90;;;;;;6177809;23;20079;-89
2022/09/23 06:31:16;;;;;;;2.40;1.40;;;11.70;99.90;;;;;;6176397;23;20008;-90
2022/09/23 06:33:43;;;;;;;1.33;1.20;;;11.70;99.90;;;;;;6177566;23;20359;-90
2022/09/23 06:36:10;;;;;;;5.45;2.03;;;11.80;99.90;;;;;;6150084;23;20009;-89
2022/09/23 06:38:42;;;;;;;1.70;1.20;;;11.80;99.90;;;;;;6177572;23;20006;-87
2022/09/23 06:41:08;;;;;;;4.70;1.00;;;11.90;99.90;;;;;;6176451;23;20078;-88
2022/09/23 06:43:34;;;;;;;2.53;1.42;;;11.90;99.90;;;;;;6177378;23;20020;-89
2022/09/23 06:46:02;;;;;;;2.78;1.20;;;12.00;99.90;;;;;;6177067;23;20523;-90
2022/09/23 06:48:29;;;;;;;2.45;1.30;;;12.10;99.90;;;;;;6177563;22;20073;-89
2022/09/23 06:51:01;;;;;;;2.22;0.90;;;12.20;99.90;;;;;;6177541;23;20006;-89
2022/09/23 06:53:27;;;;;;;3.15;1.40;;;12.30;99.90;;;;;;6176550;22;20028;-90
2022/09/23 06:56:06;;;;;;;2.42;1.90;;;12.40;99.90;;;;;;6177235;22;20009;-89
2022/09/23 06:58:34;;;;;;;7.95;1.48;;;12.40;99.90;;;;;;6174100;22;20446;-88
2022/09/23 07:01:15;;;;;;;2.45;1.50;;;12.40;99.90;;;;;;6174185;22;20009;-90
2022/09/23 07:03:41;;;;;;;5.13;1.25;;;12.60;99.90;;;;;;6176393;22;20477;-90
2022/09/23 07:06:07;;;;;;;2.20;1.27;;;12.70;99.90;;;;;;6176460;23;20001;-87
2022/09/23 07:08:34;;;;;;;3.10;1.30;;;12.80;99.90;;;;;;6177837;23;20442;-88
2022/09/23 07:11:02;;;;;;;5.65;1.33;;;12.90;99.90;;;;;;6177266;23;20028;-90
2022/09/23 07:13:28;;;;;;;5.30;1.55;;;12.90;99.90;;;;;;6176061;23;20013;-87
2022/09/23 07:15:59;;;;;;;2.22;1.30;;;13.00;99.90;;;;;;6174801;22;20008;-89
2022/09/23 07:18:25;;;;;;;0.98;0.98;;;13.00;99.90;;;;;;6177182;22;20519;-91
2022/09/23 07:20:52;;;;;;;4.20;1.30;;;13.10;99.90;;;;;;6179054;22;19997;-88
2022/09/23 07:23:18;;;;;;;2.60;1.13;;;13.10;99.90;;;;;;6177749;22;20004;-91
2022/09/23 07:25:49;;;;;;;3.70;1.30;;;13.10;99.90;;;;;;6176193;23;19997;-91
2022/09/23 07:28:14;;;;;;;4.45;1.67;;;13.20;99.90;;;;;;6177778;22;20380;-89
2022/09/23 07:30:40;;;;;;;1.88;1.33;;;13.20;99.90;;;;;;6176675;23;20065;-90
2022/09/23 07:33:05;;;;;;;3.83;1.35;;;13.20;99.90;;;;;;6177751;23;20076;-90
2022/09/23 07:35:32;;;;;;;1.23;1.05;;;13.20;99.90;;;;;;6173293;23;20012;-90
2022/09/23 07:37:58;;;;;;;3.78;1.45;;;13.20;99.90;;;;;;6176195;23;20309;-88
2022/09/23 07:40:23;;;;;;;5.65;1.10;;;13.20;99.90;;;;;;6178864;23;20046;-89
2022/09/23 07:42:49;;;;;;;2.45;1.30;;;13.20;99.90;;;;;;6176828;23;20001;-88
2022/09/23 07:45:14;;;;;;;1.88;1.15;;;13.30;99.90;;;;;;6177754;23;20001;-88
2022/09/23 07:47:40;;;;;;;3.63;1.13;;;13.30;99.90;;;;;;6177156;23;20005;-90
2022/09/23 07:50:09;;;;;;;1.48;1.25;;;13.40;99.90;;;;;;6177253;23;20035;-90
2022/09/23 07:52:36;;;;;;;1.50;1.00;;;13.40;99.90;;;;;;6178570;22;20084;-89
2022/09/23 07:55:03;;;;;;;1.20;1.10;;;13.50;99.90;;;;;;6178082;23;20001;-88
2022/09/23 07:57:28;;;;;;;6.07;1.27;;;13.50;99.90;;;;;;6176794;23;20043;-89
2022/09/23 07:59:54;;;;;;;2.58;1.30;;;13.50;99.90;;;;;;6178991;23;20009;-90
2022/09/23 08:02:19;;;;;;;3.83;1.25;;;13.60;99.90;;;;;;6176762;23;20322;-92
2022/09/23 08:04:45;;;;;;;6.32;1.40;;;13.60;99.90;;;;;;6177457;23;20028;-92
2022/09/23 08:07:11;;;;;;;3.08;1.50;;;13.70;99.90;;;;;;6176146;23;20354;-89
2022/09/23 08:09:40;;;;;;;2.88;1.60;;;13.80;99.90;;;;;;6177908;23;20268;-91
2022/09/23 08:12:10;;;;;;;2.78;0.98;;;13.90;99.90;;;;;;6177222;22;20005;-88
2022/09/23 08:14:37;;;;;;;0.95;0.93;;;14.00;99.90;;;;;;6178687;23;20004;-90
2022/09/23 08:17:05;;;;;;;2.30;1.10;;;14.00;99.90;;;;;;6177170;22;20040;-92
2022/09/23 08:19:31;;;;;;;1.98;1.27;;;14.10;99.90;;;;;;6178367;23;19997;-91
2022/09/23 08:21:56;;;;;;;1.25;1.10;;;14.20;99.90;;;;;;6175641;23;20011;-89
2022/09/23 08:24:23;;;;;;;5.15;1.50;;;14.20;99.90;;;;;;6177576;23;20134;-91
2022/09/23 08:26:52;;;;;;;4.95;1.10;;;14.30;99.90;;;;;;6178098;23;20012;-88
2022/09/23 08:29:19;;;;;;;2.58;1.40;;;14.40;99.90;;;;;;6178744;23;20342;-90
2022/09/23 08:31:46;;;;;;;1.92;1.55;;;14.50;99.90;;;;;;6177004;23;20153;-90
2022/09/23 08:34:11;;;;;;;4.38;1.13;;;14.60;99.90;;;;;;6150378;22;20238;-90
2022/09/23 08:36:37;;;;;;;2.85;1.20;;;14.60;99.90;;;;;;6174118;23;20044;-91
2022/09/23 08:39:04;;;;;;;1.83;1.02;;;14.70;99.90;;;;;;6178999;23;20001;-92
2022/09/23 08:42:03;;;;;;;3.58;1.35;;;14.70;99.90;;;;;;6175035;23;20303;-90
2022/09/23 08:44:55;;;;;;;1.20;1.10;;;14.70;99.90;;;;;;6175125;23;20061;-91
2022/09/23 08:47:31;;;;;;;1.70;1.08;;;14.70;99.90;;;;;;6174699;22;20005;-93
2022/09/23 08:49:59;;;;;;;1.27;1.17;;;14.70;99.90;;;;;;6177251;23;20005;-87
2022/09/23 08:52:34;;;;;;;1.80;1.10;;;14.90;99.90;;;;;;6177276;23;20005;-94
2022/09/23 08:55:01;;;;;;;1.75;1.25;;;14.90;99.90;;;;;;6176250;23;20001;-87
2022/09/23 08:58:05;;;;;;;2.55;1.42;;;15.00;99.90;;;;;;6177413;23;20050;-93
2022/09/23 09:00:39;;;;;;;1.40;1.30;;;15.10;99.90;;;;;;6176606;22;19997;-93
2022/09/23 09:03:22;;;;;;;1.67;1.25;;;15.10;99.90;;;;;;6176470;22;20013;-88
2022/09/23 09:05:49;;;;;;;1.40;1.15;;;15.20;99.90;;;;;;6176692;23;20009;-89
2022/09/23 09:08:23;;;;;;;0.98;0.98;;;15.30;99.90;;;;;;6177398;23;20092;-91
2022/09/23 09:10:52;;;;;;;1.60;1.45;;;15.30;99.90;;;;;;6178822;23;20372;-90
2022/09/23 09:13:31;;;;;;;5.68;1.10;;;15.20;99.90;;;;;;6177730;23;20013;-92
2022/09/23 09:16:38;;;;;;;1.48;1.38;;;15.30;99.90;;;;;;6178748;22;20013;-91
2022/09/23 09:19:11;;;;;;;2.83;1.25;;;15.30;99.90;;;;;;6188758;23;20092;-89
2022/09/23 09:21:41;;;;;;;4.75;2.95;;;15.30;99.90;;;;;;6178002;23;20295;-89
2022/09/23 09:24:16;;;;;;;5.85;1.40;;;15.30;99.90;;;;;;6177976;22;19997;-90
2022/09/23 09:26:41;;;;;;;3.03;1.37;;;15.30;99.90;;;;;;6177323;23;19997;-93
2022/09/23 09:29:24;;;;;;;3.15;1.42;;;15.20;99.90;;;;;;6178317;23;20264;-90
2022/09/23 09:31:50;;;;;;;3.88;1.10;;;15.20;99.90;;;;;;6176890;22;20001;-90
2022/09/23 09:34:33;;;;;;;1.15;1.05;;;15.20;99.90;;;;;;6178199;23;20008;-92
2022/09/23 09:37:07;;;;;;;1.45;1.35;;;15.30;99.90;;;;;;6176813;23;20016;-90
2022/09/23 09:39:34;;;;;;;1.30;1.20;;;15.50;99.90;;;;;;6177475;22;20001;-90
2022/09/23 09:41:59;;;;;;;2.25;1.20;;;15.50;99.90;;;;;;6178133;22;20005;-91
2022/09/23 09:44:49;;;;;;;1.67;1.40;;;15.60;99.90;;;;;;6177476;23;20016;-91
2022/09/23 09:47:33;;;;;;;1.55;1.20;;;15.60;99.90;;;;;;6175565;22;19998;-94
2022/09/23 09:50:12;;;;;;;1.35;1.25;;;15.60;99.90;;;;;;6178076;23;20308;-91
2022/09/23 09:52:38;;;;;;;1.80;1.45;;;15.60;99.90;;;;;;6177354;22;20001;-90
2022/09/23 09:55:12;;;;;;;3.42;1.88;;;15.60;99.90;;;;;;6178211;23;20008;-92
2022/09/23 09:57:53;;;;;;;3.85;1.58;;;15.70;99.90;;;;;;6176505;23;20024;-88
2022/09/23 10:00:25;;;;;;;3.08;1.63;;;15.80;97.80;;;;;;6178280;23;20358;-92
2022/09/23 10:03:01;;;;;;;2.90;1.58;;;15.70;98.80;;;;;;6177236;22;20001;-88
2022/09/23 10:05:47;;;;;;;3.08;1.92;;;15.70;99.90;;;;;;6176836;22;20016;-92
2022/09/23 10:08:34;;;;;;;2.30;1.83;;;15.80;99.90;;;;;;6176211;23;20515;-92
2022/09/23 10:11:02;;;;;;;2.20;1.85;;;15.90;99.90;;;;;;6177320;23;20005;-94
2022/09/23 10:13:29;;;;;;;2.88;1.45;;;16.00;99.10;;;;;;6176563;22;20096;-95
2022/09/23 10:15:56;;;;;;;3.45;1.70;;;16.00;99.90;;;;;;6176687;22;20425;-90
2022/09/23 10:18:46;;;;;;;3.80;1.20;;;16.00;95.70;;;;;;6172515;22;20017;-89
2022/09/23 10:21:16;;;;;;;2.28;1.13;;;16.00;95.40;;;;;;6173350;23;20013;-93
2022/09/23 10:23:44;;;;;;;4.68;1.20;;;16.00;98.70;;;;;;6171220;23;20005;-93
2022/09/23 10:26:11;;;;;;;1.58;1.10;;;16.00;97.30;;;;;;6177068;23;20002;-93
2022/09/23 10:28:43;;;;;;;1.30;1.20;;;15.90;96.80;;;;;;6176892;23;20026;-89
2022/09/23 10:31:14;;;;;;;2.85;2.00;;;15.90;98.80;;;;;;6178028;22;20001;-92
2022/09/23 10:33:56;;;;;;;2.15;1.52;;;16.00;98.30;;;;;;6151482;23;20011;-93
2022/09/23 10:36:21;;;;;;;2.85;1.40;;;16.00;99.90;;;;;;6177787;22;20017;-89
2022/09/23 10:38:51;;;;;;;3.00;1.20;;;16.20;98.60;;;;;;6176081;23;20006;-92
2022/09/23 10:47:40;;;;;;;;;;;16.40;97.30;;;;;;6177192;23;20012;-92
2022/09/23 10:50:40;;;;;;;2.40;1.67;;;16.50;95.20;;;;;;6178421;23;19971;-87
2022/09/23 10:53:24;;;;;;;3.90;1.40;;;16.50;93.70;;;;;;6177086;22;19997;-88
2022/09/23 10:56:02;;;;;;;3.25;2.00;;;16.60;92.10;;;;;;6177710;22;20009;-90
2022/09/23 10:58:49;;;;;;;1.63;1.30;;;16.70;95.00;;;;;;6150408;22;20051;-89
2022/09/23 11:01:21;;;;;;;3.45;1.13;;;16.70;84.70;;;;;;6177362;23;20077;-85
2022/09/23 11:04:00;;;;;;;1.42;1.33;;;16.70;80.90;;;;;;6176303;23;19997;-89
2022/09/23 11:06:46;;;;;;;1.52;1.40;;;16.70;84.10;;;;;;6177350;22;20001;-87
2022/09/23 11:09:40;;;;;;;1.33;1.23;;;16.70;82.10;;;;;;6174585;23;20013;-86
2022/09/23 11:12:07;;;;;;;1.63;1.40;;;16.70;82.10;;;;;;6176917;23;20292;-92
2022/09/23 11:14:42;;;;;;;5.03;1.70;;;16.70;81.40;;;;;;6178154;22;20001;-89
2022/09/23 11:17:21;;;;;;;;;;;16.70;86.60;;;;;;6176975;22;20013;-92
2022/09/23 11:19:55;;;;;;;1.77;1.40;;;16.60;85.30;;;;;;6178253;22;19945;-92
2022/09/23 11:22:37;;;;;;;6.70;1.35;;;16.60;90.40;;;;;;6175341;23;20001;-89
2022/09/23 11:25:15;;;;;;;2.28;1.30;;;16.70;92.20;;;;;;6177846;22;20013;-93
2022/09/23 11:27:49;;;;;;;2.33;1.42;;;16.80;90.50;;;;;;6175607;22;20330;-89
2022/09/23 11:30:19;;;;;;;1.50;1.40;;;16.90;86.10;;;;;;6177229;23;20008;-91
2022/09/23 11:32:56;;;;;;;3.17;2.90;;;16.90;81.50;;;;;;6149668;22;19998;-90
2022/09/23 11:35:25;;;;;;;3.20;2.90;;;16.90;83.30;;;;;;6177567;23;19997;-91
2022/09/23 11:37:52;;;;;;;1.80;1.48;;;17.00;83.80;;;;;;6176192;23;20460;-92
2022/09/23 11:40:28;;;;;;;2.40;1.33;;;17.10;87.90;;;;;;6175997;23;20040;-92
2022/09/23 11:43:22;;;;;;;3.00;1.35;;;17.10;85.10;;;;;;6176790;22;20012;-91
2022/09/23 11:46:12;;;;;;;1.38;0.98;;;17.20;85.10;;;;;;6182266;22;20001;-93
2022/09/23 11:48:45;;;;;;;1.25;1.15;;;17.30;77.40;;;;;;6177350;22;20001;-87
2022/09/23 11:51:30;;;;;;;7.25;1.75;;;17.30;79.40;;;;;;6176673;23;20001;-92
2022/09/23 11:54:03;;;;;;;3.92;1.55;;;17.30;77.70;;;;;;6175703;22;20001;-87
2022/09/23 11:56:49;;;;;;;2.67;1.50;;;17.30;81.60;;;;;;6176324;23;20013;-93
2022/09/23 11:59:24;;;;;;;;;;;17.30;77.30;;;;;;6179702;22;20020;-94
2022/09/23 12:02:19;;;;;;;2.80;1.60;;;17.30;82.80;;;;;;6177208;23;19975;-90
2022/09/23 12:04:51;;;;;;;3.67;1.75;;;17.40;84.60;;;;;;6177931;22;20051;-93
2022/09/23 12:07:27;;;;;;;3.22;1.50;;;17.50;83.00;;;;;;6176273;22;20040;-89
2022/09/23 12:10:05;;;;;;;6.60;1.83;;;17.50;87.10;;;;;;6176645;22;20012;-93
2022/09/23 12:12:57;;;;;;;2.88;1.90;;;17.50;78.20;;;;;;6177751;23;20486;-91
2022/09/23 12:15:55;;;;;;;3.45;1.42;;;17.50;75.80;;;;;;6178148;23;20005;-91
2022/09/23 12:18:34;;;;;;;1.63;1.52;;;17.50;76.80;;;;;;6178286;23;20009;-94
2022/09/23 12:21:19;;;;;;;1.95;1.33;;;17.40;79.70;;;;;;6178689;22;20021;-93
2022/09/23 12:23:53;;;;;;;4.88;1.35;;;17.40;87.70;;;;;;6176832;22;20043;-94
2022/09/23 12:26:23;;;;;;;3.42;1.90;;;17.50;90.60;;;;;;6178974;23;20368;-92
2022/09/23 12:28:51;;;;;;;1.77;1.50;;;17.60;82.80;;;;;;6177697;23;19997;-94
2022/09/23 12:31:34;;;;;;;1.92;1.73;;;17.60;83.00;;;;;;6179436;23;20038;-94
2022/09/23 12:34:18;;;;;;;3.63;1.45;;;17.50;89.70;;;;;;6178140;22;20036;-93
2022/09/23 12:36:44;;;;;;;2.97;1.50;;;17.50;84.80;;;;;;6178234;23;20009;-94
2022/09/23 12:39:29;;;;;;;2.03;1.48;;;17.60;84.80;;;;;;6178407;23;20009;-93
2022/09/23 12:42:01;;;;;;;5.78;2.28;;;17.60;88.20;;;;;;6178318;23;19997;-93
2022/09/23 12:44:36;;;;;;;8.95;3.33;;;17.60;90.40;;;;;;6175380;23;20023;-94
2022/09/23 12:47:23;;;;;;;3.15;1.75;;;17.70;92.40;;;;;;6178506;23;20009;-93
2022/09/23 12:49:52;;;;;;;3.22;2.25;;;17.70;90.60;;;;;;6179053;22;20009;-93
2022/09/23 12:52:18;;;;;;;3.45;2.92;;;17.80;90.30;;;;;;6149204;22;20040;-90
2022/09/23 12:54:48;;;;;;;4.25;2.33;;;18.00;79.40;;;;;;6149311;23;20012;-91
2022/09/23 12:57:39;;;;;;;4.03;1.58;;;18.00;83.50;;;;;;6147137;23;20013;-91
2022/09/23 13:00:24;;;;;;;5.85;2.13;;;18.00;84.70;;;;;;6178071;22;20012;-92
2022/09/23 13:08:44;;;;;;;2.25;1.80;;;17.70;91.00;;;;;;6175884;23;20109;-93
2022/09/23 13:11:30;;;;;;;4.00;2.80;;;17.70;91.40;;;;;;6177177;23;20314;-90
2022/09/23 13:14:02;;;;;;;3.28;1.90;;;17.80;91.00;;;;;;6177509;22;20048;-93
2022/09/23 13:16:35;;;;;;;6.85;1.60;;;17.90;91.50;;;;;;6177229;23;20013;-94
2022/09/23 13:19:04;;;;;;;2.05;1.35;;;18.10;87.40;;;;;;6177840;22;20028;-91
2022/09/23 13:21:41;;;;;;;5.15;1.27;;;18.20;89.00;;;;;;6178907;23;20032;-94
2022/09/23 13:24:15;;;;;;;1.55;1.45;;;18.10;87.90;;;;;;6176709;23;20076;-93
2022/09/23 13:27:10;;;;;;;3.03;1.60;;;18.10;88.10;;;;;;6178358;23;20005;-93
2022/09/23 13:30:15;;;;;;;2.88;1.80;;;18.10;88.40;;;;;;6167589;23;20001;-88
2022/09/23 13:32:47;;;;;;;4.30;1.92;;;18.10;89.90;;;;;;6176955;22;20037;-90
2022/09/23 13:35:12;;;;;;;8.40;1.65;;;18.20;83.80;;;;;;6178001;23;19997;-87
2022/09/23 13:37:43;;;;;;;4.90;1.15;;;18.40;79.00;;;;;;6175355;23;20319;-94
2022/09/23 13:40:30;;;;;;;3.67;1.40;;;18.50;80.00;;;;;;6178184;22;19997;-93
2022/09/23 13:43:00;;;;;;;2.30;1.20;;;18.50;80.30;;;;;;6151832;22;20158;-89
2022/09/23 13:45:29;;;;;;;1.80;1.45;;;18.50;72.50;;;;;;6178368;23;20009;-91
2022/09/23 13:48:02;;;;;;;1.30;1.20;;;18.40;75.00;;;;;;6177211;22;20027;-92
2022/09/23 13:50:28;;;;;;;1.67;1.40;;;18.30;76.40;;;;;;6175584;23;20009;-94
2022/09/23 13:52:59;;;;;;;1.88;1.05;;;18.20;79.60;;;;;;6176012;23;20037;-92
2022/09/23 13:55:27;;;;;;;2.60;1.30;;;18.10;83.00;;;;;;6175706;22;20023;-93
2022/09/23 13:57:58;;;;;;;4.28;1.85;;;18.10;83.80;;;;;;6149993;23;20048;-91
2022/09/23 14:00:24;;;;;;;2.53;1.38;;;18.10;75.80;;;;;;6177633;23;20005;-91
2022/09/23 14:02:51;;;;;;;2.83;1.90;;;18.20;73.80;;;;;;6174514;23;20012;-93
2022/09/23 14:05:26;;;;;;;2.15;1.48;;;18.30;73.30;;;;;;6174417;22;20005;-92
2022/09/23 14:07:53;;;;;;;4.88;2.33;;;18.30;76.70;;;;;;6174068;22;20005;-89
2022/09/23 14:10:23;;;;;;;13.13;2.13;;;18.20;75.10;;;;;;6176620;23;20098;-92
2022/09/23 14:12:51;;;;;;;3.30;1.50;;;18.30;72.60;;;;;;6173512;23;20074;-92
2022/09/23 14:15:19;;;;;;;1.90;1.10;;;18.20;70.80;;;;;;6176152;22;20436;-92
2022/09/23 14:17:51;;;;;;;3.38;1.42;;;18.20;69.70;;;;;;6177594;23;20044;-91
2022/09/23 14:20:19;;;;;;;3.42;1.95;;;18.10;71.80;;;;;;6176119;22;20395;-93
2022/09/23 14:22:45;;;;;;;3.97;1.55;;;18.10;76.20;;;;;;6174484;23;20456;-91
2022/09/23 14:25:16;;;;;;;2.35;1.88;;;18.00;74.80;;;;;;6175444;23;19998;-91
2022/09/23 14:27:43;;;;;;;5.18;1.80;;;18.00;73.50;;;;;;6175718;22;20077;-93
2022/09/23 14:30:19;;;;;;;1.52;1.27;;;18.00;72.10;;;;;;6176336;22;20001;-92
2022/09/23 14:32:46;;;;;;;2.00;1.40;;;17.90;76.10;;;;;;6173647;23;20028;-93
2022/09/23 14:35:21;;;;;;;1.27;1.17;;;17.80;75.40;;;;;;6175989;23;20009;-92
2022/09/23 14:41:14;;;;;;;2.13;1.35;;;17.70;73.50;;;;;;6178278;23;20024;-92
2022/09/23 14:43:53;;;;;;;2.00;1.35;;;17.70;75.80;;;;;;6175955;22;20005;-92
2022/09/23 14:46:21;;;;;;;1.50;1.38;;;17.60;76.90;;;;;;6178060;23;20426;-94
2022/09/23 14:49:01;;;;;;;6.78;1.67;;;17.60;76.40;;;;;;6177961;23;20076;-93
2022/09/23 14:51:46;;;;;;;2.95;1.27;;;17.50;77.70;;;;;;6175588;23;20481;-93
2022/09/23 14:54:42;;;;;;;4.27;1.23;;;17.40;82.80;;;;;;6174940;23;20143;-92
2022/09/23 14:57:24;;;;;;;;;;;17.30;85.90;;;;;;6175432;23;20515;-93
2022/09/23 15:00:08;;;;;;;5.07;1.90;;;17.20;87.90;;;;;;6177131;22;19965;-93
2022/09/23 15:02:41;;;;;;;2.97;1.38;;;17.20;90.50;;;;;;6178183;22;20406;-91
2022/09/23 15:05:21;;;;;;;4.38;2.25;;;17.10;91.30;;;;;;6176038;22;20032;-90
2022/09/23 15:07:51;;;;;;;4.65;1.80;;;17.10;91.20;;;;;;6175328;23;20017;-92
2022/09/23 15:10:29;;;;;;;2.65;1.45;;;17.00;91.50;;;;;;6176372;23;20005;-91
2022/09/23 15:13:08;;;;;;;3.92;1.00;;;17.10;91.50;;;;;;6174726;22;20009;-92
2022/09/23 15:15:34;;;;;;;1.20;1.10;;;17.20;91.90;;;;;;6178708;22;20068;-93
2022/09/23 15:18:14;;;;;;;1.63;1.20;;;17.30;92.20;;;;;;6178843;23;20024;-93
2022/09/23 15:20:47;;;;;;;7.15;1.50;;;17.30;91.90;;;;;;6175519;23;20012;-88
2022/09/23 15:23:40;;;;;;;2.28;1.42;;;17.30;94.00;;;;;;6173965;23;20084;-89
2022/09/23 15:26:14;;;;;;;3.22;1.40;;;17.40;93.60;;;;;;6179780;23;20072;-92
2022/09/23 15:28:58;;;;;;;3.55;1.65;;;17.50;92.90;;;;;;6178440;22;20009;-94
2022/09/23 15:31:25;;;;;;;2.70;1.42;;;17.50;90.60;;;;;;6177512;23;20005;-92
2022/09/23 15:33:50;;;;;;;2.97;1.30;;;17.50;90.90;;;;;;6178021;23;20024;-91
2022/09/23 15:36:24;;;;;;;5.15;1.50;;;17.50;91.60;;;;;;6179142;23;20431;-92
2022/09/23 15:38:51;;;;;;;3.03;1.98;;;17.60;92.30;;;;;;6178979;23;20001;-94
2022/09/23 15:41:17;;;;;;;1.25;1.17;;;17.70;90.80;;;;;;6179457;23;20002;-92
2022/09/23 15:43:43;;;;;;;2.55;1.65;;;17.70;90.00;;;;;;6178348;22;20001;-90
2022/09/23 15:46:16;;;;;;;2.53;1.58;;;17.70;91.50;;;;;;6177066;23;20009;-93
2022/09/23 15:48:49;;;;;;;4.78;2.47;;;17.70;87.30;;;;;;6178090;23;20055;-91
2022/09/23 15:51:15;;;;;;;5.78;2.22;;;17.70;85.30;;;;;;6179881;23;20012;-93
2022/09/23 15:53:41;;;;;;;1.70;1.60;;;17.70;83.30;;;;;;6178051;23;20025;-94
2022/09/23 15:56:07;;;;;;;5.85;1.70;;;17.60;81.80;;;;;;6178100;23;20303;-90
2022/09/23 15:58:32;;;;;;;3.50;1.75;;;17.50;84.70;;;;;;6176103;23;20434;-93
2022/09/23 16:00:59;;;;;;;5.60;1.65;;;17.40;86.10;;;;;;6177848;23;19997;-93
2022/09/23 16:03:28;;;;;;;3.45;1.90;;;17.20;91.90;;;;;;6176380;22;20043;-92
2022/09/23 16:05:58;;;;;;;1.55;1.40;;;17.20;88.40;;;;;;6177950;23;20438;-92
2022/09/23 16:08:24;;;;;;;7.07;1.30;;;17.10;87.80;;;;;;6178039;22;20025;-92
2022/09/23 16:10:50;;;;;;;1.90;1.17;;;17.00;93.20;;;;;;6178192;23;20096;-91
2022/09/23 16:13:17;;;;;;;1.30;1.20;;;16.90;96.90;;;;;;6177200;23;20236;-91
2022/09/23 16:15:42;;;;;;;2.97;1.60;;;16.80;99.90;;;;;;6176440;23;20009;-92
2022/09/23 16:18:10;;;;;;;1.88;1.35;;;16.70;99.90;;;;;;6174868;23;20020;-92
2022/09/23 16:20:38;;;;;;;7.53;1.80;;;16.60;99.90;;;;;;6152828;22;20042;-88
2022/09/23 16:23:07;;;;;;;5.55;2.08;;;16.40;99.90;;;;;;6175849;23;20001;-94
2022/09/23 16:25:34;;;;;;;1.98;1.48;;;16.30;99.90;;;;;;6177361;22;20008;-94
2022/09/23 16:28:03;;;;;;;2.95;1.70;;;16.20;99.90;;;;;;6176610;22;20072;-85
2022/09/23 16:30:31;;;;;;;9.93;3.15;;;16.10;99.90;;;;;;6176571;23;20451;-91
2022/09/23 16:32:59;;;;;;;7.68;5.80;;;16.00;99.90;;;;;;6175099;23;20005;-91
2022/09/23 16:35:26;;;;;;;6.10;3.88;;;15.80;99.90;;;;;;6176352;22;19998;-90
2022/09/23 16:37:52;;;;;;;7.43;3.38;;;15.70;99.90;;;;;;6177355;22;20013;-90
2022/09/23 16:40:20;;;;;;;7.22;3.38;;;15.60;99.90;;;;;;6176413;23;20012;-89
2022/09/23 16:42:47;;;;;;;4.53;3.90;;;15.50;99.90;;;;;;6177496;23;20023;-91
2022/09/23 16:45:16;;;;;;;4.15;3.38;;;15.50;99.90;;;;;;6177088;23;20008;-93
2022/09/23 16:47:47;;;;;;;3.30;2.25;;;15.40;99.90;;;;;;6178579;22;20001;-91
2022/09/23 16:50:14;;;;;;;3.70;1.80;;;15.30;99.90;;;;;;6176800;22;20025;-88
2022/09/23 16:52:40;;;;;;;5.05;1.77;;;15.20;99.90;;;;;;6177251;23;20039;-91
2022/09/23 16:55:07;;;;;;;1.85;1.67;;;15.10;99.90;;;;;;6177128;23;20002;-90
2022/09/23 16:57:39;;;;;;;1.45;1.13;;;15.00;99.90;;;;;;6177883;23;20053;-92
2022/09/23 17:05:45;;;;;;;3.00;1.50;;;14.80;99.90;;;;;;6177048;23;20012;-90
2022/09/23 17:08:12;;;;;;;3.45;2.00;;;14.70;99.90;;;;;;6177821;22;20439;-91
2022/09/23 17:10:53;;;;;;;2.88;1.65;;;14.60;99.90;;;;;;6177753;23;20020;-87
2022/09/23 17:13:19;;;;;;;3.13;2.20;;;14.60;99.90;;;;;;6177362;22;20054;-90
2022/09/23 17:15:44;;;;;;;3.85;1.70;;;14.50;99.90;;;;;;6178214;23;19997;-89
2022/09/23 17:18:11;;;;;;;1.55;1.45;;;14.50;99.90;;;;;;6177357;23;20105;-84
2022/09/23 17:20:37;;;;;;;2.38;1.92;;;14.40;99.90;;;;;;6179451;23;20455;-88
2022/09/23 17:23:04;;;;;;;3.33;2.13;;;14.40;99.90;;;;;;6181285;23;19997;-90
2022/09/23 17:25:30;;;;;;;13.63;7.47;;;14.40;99.90;;;;;;6184015;22;20046;-92
2022/09/23 17:27:56;;;;;;;15.10;9.35;;;14.30;99.90;;;;;;6180573;23;20001;-92
2022/09/23 17:30:22;;;;;;;7.70;4.07;;;14.20;99.90;;;;;;6180598;23;20009;-87
2022/09/23 17:32:47;;;;;;;9.55;3.70;;;14.20;99.90;;;;;;6181856;23;20001;-90
2022/09/23 17:35:13;;;;;;;7.32;4.63;;;14.10;99.90;;;;;;6176900;23;20630;-91
2022/09/23 17:37:39;;;;;;;8.85;3.70;;;14.20;99.90;;;;;;6175785;23;20013;-87